sensor_id;sensor_type;location;lat;lon;timestamp;temperature;humidity
939;DHT22;456;53.584;9.968;2023-01-19T00:00:50;16.90;16.10
939;DHT22;456;53.584;9.968;2023-01-19T00:03:15;16.90;16.00
939;DHT22;456;53.584;9.968;2023-01-19T00:05:42;16.90;16.00
939;DHT22;456;53.584;9.968;2023-01-19T00:08:08;16.90;16.00
939;DHT22;456;53.584;9.968;2023-01-19T00:10:48;16.90;16.00
939;DHT22;456;53.584;9.968;2023-01-19T00:13:15;16.90;16.00
939;DHT22;456;53.584;9.968;2023-01-19T00:15:41;16.90;16.00
939;DHT22;456;53.584;9.968;2023-01-19T00:18:07;16.90;16.00
939;DHT22;456;53.584;9.968;2023-01-19T00:20:33;16.90;16.00
939;DHT22;456;53.584;9.968;2023-01-19T00:23:00;16.90;16.00
939;DHT22;456;53.584;9.968;2023-01-19T00:25:26;16.90;16.30
939;DHT22;456;53.584;9.968;2023-01-19T00:27:52;16.90;16.20
939;DHT22;456;53.584;9.968;2023-01-19T00:30:18;16.90;16.20
939;DHT22;456;53.584;9.968;2023-01-19T00:32:43;16.90;16.20
939;DHT22;456;53.584;9.968;2023-01-19T00:35:09;16.90;16.00
939;DHT22;456;53.584;9.968;2023-01-19T00:37:35;16.90;16.30
939;DHT22;456;53.584;9.968;2023-01-19T00:40:00;16.90;16.20
939;DHT22;456;53.584;9.968;2023-01-19T00:42:26;16.90;16.00
939;DHT22;456;53.584;9.968;2023-01-19T00:45:22;16.90;16.00
939;DHT22;456;53.584;9.968;2023-01-19T00:47:49;16.90;16.00
939;DHT22;456;53.584;9.968;2023-01-19T00:50:22;16.90;16.00
939;DHT22;456;53.584;9.968;2023-01-19T00:52:47;16.90;16.10
939;DHT22;456;53.584;9.968;2023-01-19T00:55:14;16.90;16.00
939;DHT22;456;53.584;9.968;2023-01-19T00:57:41;16.90;16.00
939;DHT22;456;53.584;9.968;2023-01-19T01:00:09;16.90;16.00
939;DHT22;456;53.584;9.968;2023-01-19T01:02:36;16.90;16.00
939;DHT22;456;53.584;9.968;2023-01-19T01:05:02;16.90;16.00
939;DHT22;456;53.584;9.968;2023-01-19T01:07:29;16.90;16.00
939;DHT22;456;53.584;9.968;2023-01-19T01:09:54;16.90;16.00
939;DHT22;456;53.584;9.968;2023-01-19T01:12:23;16.90;16.00
939;DHT22;456;53.584;9.968;2023-01-19T01:14:49;16.90;16.50
939;DHT22;456;53.584;9.968;2023-01-19T01:17:14;16.90;16.00
939;DHT22;456;53.584;9.968;2023-01-19T01:19:40;16.90;16.00
939;DHT22;456;53.584;9.968;2023-01-19T01:22:07;16.90;16.00
939;DHT22;456;53.584;9.968;2023-01-19T01:24:33;16.90;16.00
939;DHT22;456;53.584;9.968;2023-01-19T01:26:59;16.90;16.00
939;DHT22;456;53.584;9.968;2023-01-19T01:29:24;16.90;16.00
939;DHT22;456;53.584;9.968;2023-01-19T01:31:50;16.90;16.00
939;DHT22;456;53.584;9.968;2023-01-19T01:34:16;16.90;16.00
939;DHT22;456;53.584;9.968;2023-01-19T01:36:42;16.80;15.90
939;DHT22;456;53.584;9.968;2023-01-19T01:39:07;16.90;16.00
939;DHT22;456;53.584;9.968;2023-01-19T01:41:33;16.90;16.00
939;DHT22;456;53.584;9.968;2023-01-19T01:43:59;16.90;16.00
939;DHT22;456;53.584;9.968;2023-01-19T01:46:28;16.90;16.00
939;DHT22;456;53.584;9.968;2023-01-19T01:49:07;16.90;16.00
939;DHT22;456;53.584;9.968;2023-01-19T01:51:41;16.90;16.00
939;DHT22;456;53.584;9.968;2023-01-19T01:54:28;16.90;16.00
939;DHT22;456;53.584;9.968;2023-01-19T01:56:58;16.90;16.00
939;DHT22;456;53.584;9.968;2023-01-19T01:59:34;16.90;16.00
939;DHT22;456;53.584;9.968;2023-01-19T02:02:08;16.90;16.00
939;DHT22;456;53.584;9.968;2023-01-19T02:05:09;16.90;16.00
939;DHT22;456;53.584;9.968;2023-01-19T02:10:28;16.90;16.00
939;DHT22;456;53.584;9.968;2023-01-19T02:13:13;16.90;16.00
939;DHT22;456;53.584;9.968;2023-01-19T02:15:56;16.90;16.00
939;DHT22;456;53.584;9.968;2023-01-19T02:18:27;16.90;16.00
939;DHT22;456;53.584;9.968;2023-01-19T02:21:18;16.90;16.00
939;DHT22;456;53.584;9.968;2023-01-19T02:23:49;16.90;16.00
939;DHT22;456;53.584;9.968;2023-01-19T02:26:34;16.90;16.00
939;DHT22;456;53.584;9.968;2023-01-19T02:29:02;16.80;15.90
939;DHT22;456;53.584;9.968;2023-01-19T02:31:29;16.80;15.90
939;DHT22;456;53.584;9.968;2023-01-19T02:33:56;16.80;15.90
939;DHT22;456;53.584;9.968;2023-01-19T02:36:24;16.90;16.50
939;DHT22;456;53.584;9.968;2023-01-19T02:38:53;16.90;16.00
939;DHT22;456;53.584;9.968;2023-01-19T02:41:23;16.90;16.00
939;DHT22;456;53.584;9.968;2023-01-19T02:43:49;16.90;16.00
939;DHT22;456;53.584;9.968;2023-01-19T02:46:15;16.90;16.00
939;DHT22;456;53.584;9.968;2023-01-19T02:48:41;16.80;15.90
939;DHT22;456;53.584;9.968;2023-01-19T02:51:21;16.90;16.00
939;DHT22;456;53.584;9.968;2023-01-19T02:56:49;16.90;16.00
939;DHT22;456;53.584;9.968;2023-01-19T02:59:39;16.90;16.00
939;DHT22;456;53.584;9.968;2023-01-19T03:02:27;16.90;16.00
939;DHT22;456;53.584;9.968;2023-01-19T03:05:21;16.90;16.00
939;DHT22;456;53.584;9.968;2023-01-19T03:07:58;16.90;16.00
939;DHT22;456;53.584;9.968;2023-01-19T03:11:02;16.90;16.00
939;DHT22;456;53.584;9.968;2023-01-19T03:13:48;16.90;16.00
939;DHT22;456;53.584;9.968;2023-01-19T03:16:46;16.90;16.00
939;DHT22;456;53.584;9.968;2023-01-19T03:19:35;16.90;16.00
939;DHT22;456;53.584;9.968;2023-01-19T03:22:07;16.90;16.00
939;DHT22;456;53.584;9.968;2023-01-19T03:24:37;16.90;16.00
939;DHT22;456;53.584;9.968;2023-01-19T03:27:25;16.90;16.00
939;DHT22;456;53.584;9.968;2023-01-19T03:29:58;16.90;16.00
939;DHT22;456;53.584;9.968;2023-01-19T03:32:30;16.90;16.00
939;DHT22;456;53.584;9.968;2023-01-19T03:34:59;16.80;15.90
939;DHT22;456;53.584;9.968;2023-01-19T03:37:27;16.80;15.90
939;DHT22;456;53.584;9.968;2023-01-19T03:39:53;16.90;16.00
939;DHT22;456;53.584;9.968;2023-01-19T03:42:20;16.90;16.00
939;DHT22;456;53.584;9.968;2023-01-19T03:44:46;16.90;16.00
939;DHT22;456;53.584;9.968;2023-01-19T03:47:15;16.90;16.00
939;DHT22;456;53.584;9.968;2023-01-19T03:49:43;16.90;16.00
939;DHT22;456;53.584;9.968;2023-01-19T03:52:10;16.80;15.90
939;DHT22;456;53.584;9.968;2023-01-19T03:54:37;16.80;15.90
939;DHT22;456;53.584;9.968;2023-01-19T03:57:03;16.90;16.00
939;DHT22;456;53.584;9.968;2023-01-19T03:59:28;16.90;16.00
939;DHT22;456;53.584;9.968;2023-01-19T04:01:54;16.80;15.90
939;DHT22;456;53.584;9.968;2023-01-19T04:04:19;16.90;16.00
939;DHT22;456;53.584;9.968;2023-01-19T04:06:45;16.90;16.00
939;DHT22;456;53.584;9.968;2023-01-19T04:09:11;16.90;16.00
939;DHT22;456;53.584;9.968;2023-01-19T04:11:36;16.90;16.00
939;DHT22;456;53.584;9.968;2023-01-19T04:14:02;16.90;16.00
939;DHT22;456;53.584;9.968;2023-01-19T04:16:27;16.90;16.00
939;DHT22;456;53.584;9.968;2023-01-19T04:18:53;16.90;16.00
939;DHT22;456;53.584;9.968;2023-01-19T04:21:20;16.90;16.00
939;DHT22;456;53.584;9.968;2023-01-19T04:23:45;16.90;16.00
939;DHT22;456;53.584;9.968;2023-01-19T04:26:11;16.90;16.00
939;DHT22;456;53.584;9.968;2023-01-19T04:28:37;16.90;16.00
939;DHT22;456;53.584;9.968;2023-01-19T04:31:04;16.90;16.00
939;DHT22;456;53.584;9.968;2023-01-19T04:33:30;16.90;16.00
939;DHT22;456;53.584;9.968;2023-01-19T04:35:56;16.90;16.00
939;DHT22;456;53.584;9.968;2023-01-19T04:38:23;16.90;16.00
939;DHT22;456;53.584;9.968;2023-01-19T04:40:49;16.90;15.90
939;DHT22;456;53.584;9.968;2023-01-19T04:43:15;16.90;16.00
939;DHT22;456;53.584;9.968;2023-01-19T04:45:41;16.90;15.90
939;DHT22;456;53.584;9.968;2023-01-19T04:48:09;16.80;15.90
939;DHT22;456;53.584;9.968;2023-01-19T04:50:36;16.90;15.90
939;DHT22;456;53.584;9.968;2023-01-19T04:53:01;16.90;16.00
939;DHT22;456;53.584;9.968;2023-01-19T04:55:27;16.90;16.00
939;DHT22;456;53.584;9.968;2023-01-19T04:57:52;16.90;16.00
939;DHT22;456;53.584;9.968;2023-01-19T05:00:18;16.90;16.00
939;DHT22;456;53.584;9.968;2023-01-19T05:02:45;16.90;16.00
939;DHT22;456;53.584;9.968;2023-01-19T05:05:10;16.90;16.00
939;DHT22;456;53.584;9.968;2023-01-19T05:07:37;16.90;16.00
939;DHT22;456;53.584;9.968;2023-01-19T05:10:03;16.90;16.00
939;DHT22;456;53.584;9.968;2023-01-19T05:12:29;17.00;16.00
939;DHT22;456;53.584;9.968;2023-01-19T05:14:54;17.00;16.00
939;DHT22;456;53.584;9.968;2023-01-19T05:17:20;17.00;16.10
939;DHT22;456;53.584;9.968;2023-01-19T05:19:45;17.00;16.00
939;DHT22;456;53.584;9.968;2023-01-19T05:22:13;17.00;16.00
939;DHT22;456;53.584;9.968;2023-01-19T05:24:38;17.00;16.00
939;DHT22;456;53.584;9.968;2023-01-19T05:27:04;17.00;16.00
939;DHT22;456;53.584;9.968;2023-01-19T05:29:30;17.00;16.00
939;DHT22;456;53.584;9.968;2023-01-19T05:31:55;17.00;16.00
939;DHT22;456;53.584;9.968;2023-01-19T05:34:21;17.00;16.00
939;DHT22;456;53.584;9.968;2023-01-19T05:36:47;17.00;16.00
939;DHT22;456;53.584;9.968;2023-01-19T05:39:12;17.00;16.10
939;DHT22;456;53.584;9.968;2023-01-19T05:41:38;17.00;16.00
939;DHT22;456;53.584;9.968;2023-01-19T05:44:04;17.00;16.10
939;DHT22;456;53.584;9.968;2023-01-19T05:46:29;17.00;16.00
939;DHT22;456;53.584;9.968;2023-01-19T05:48:55;17.00;16.00
939;DHT22;456;53.584;9.968;2023-01-19T05:51:20;17.00;16.00
939;DHT22;456;53.584;9.968;2023-01-19T05:53:46;17.00;16.00
939;DHT22;456;53.584;9.968;2023-01-19T05:56:12;17.00;16.00
939;DHT22;456;53.584;9.968;2023-01-19T05:58:37;17.00;16.00
939;DHT22;456;53.584;9.968;2023-01-19T06:01:07;17.00;16.00
939;DHT22;456;53.584;9.968;2023-01-19T06:03:35;17.00;16.10
939;DHT22;456;53.584;9.968;2023-01-19T06:06:02;17.00;16.00
939;DHT22;456;53.584;9.968;2023-01-19T06:08:28;17.00;16.00
939;DHT22;456;53.584;9.968;2023-01-19T06:10:54;17.00;16.00
939;DHT22;456;53.584;9.968;2023-01-19T06:13:19;17.00;16.10
939;DHT22;456;53.584;9.968;2023-01-19T06:15:45;17.00;16.00
939;DHT22;456;53.584;9.968;2023-01-19T06:18:11;17.00;16.00
939;DHT22;456;53.584;9.968;2023-01-19T06:20:39;17.00;16.00
939;DHT22;456;53.584;9.968;2023-01-19T06:23:04;17.10;16.20
939;DHT22;456;53.584;9.968;2023-01-19T06:25:30;17.10;16.10
939;DHT22;456;53.584;9.968;2023-01-19T06:27:56;17.10;16.10
939;DHT22;456;53.584;9.968;2023-01-19T06:30:21;17.10;16.10
939;DHT22;456;53.584;9.968;2023-01-19T06:32:47;17.10;16.10
939;DHT22;456;53.584;9.968;2023-01-19T06:35:13;17.00;16.00
939;DHT22;456;53.584;9.968;2023-01-19T06:37:39;17.00;16.00
939;DHT22;456;53.584;9.968;2023-01-19T06:40:05;17.10;16.20
939;DHT22;456;53.584;9.968;2023-01-19T06:42:31;17.10;16.10
939;DHT22;456;53.584;9.968;2023-01-19T06:44:57;17.10;16.10
939;DHT22;456;53.584;9.968;2023-01-19T06:47:22;17.10;16.10
939;DHT22;456;53.584;9.968;2023-01-19T06:49:48;17.10;16.10
939;DHT22;456;53.584;9.968;2023-01-19T06:52:14;17.10;16.10
939;DHT22;456;53.584;9.968;2023-01-19T06:54:42;17.10;16.10
939;DHT22;456;53.584;9.968;2023-01-19T06:57:08;17.10;16.10
939;DHT22;456;53.584;9.968;2023-01-19T06:59:35;17.10;16.10
939;DHT22;456;53.584;9.968;2023-01-19T07:02:00;17.10;16.10
939;DHT22;456;53.584;9.968;2023-01-19T07:04:26;17.10;16.10
939;DHT22;456;53.584;9.968;2023-01-19T07:06:52;17.10;16.10
939;DHT22;456;53.584;9.968;2023-01-19T07:09:17;17.10;16.10
939;DHT22;456;53.584;9.968;2023-01-19T07:11:45;17.10;16.10
939;DHT22;456;53.584;9.968;2023-01-19T07:14:11;17.10;16.10
939;DHT22;456;53.584;9.968;2023-01-19T07:16:36;17.10;16.10
939;DHT22;456;53.584;9.968;2023-01-19T07:19:02;17.10;16.10
939;DHT22;456;53.584;9.968;2023-01-19T07:21:28;17.00;16.00
939;DHT22;456;53.584;9.968;2023-01-19T07:23:53;17.00;16.00
939;DHT22;456;53.584;9.968;2023-01-19T07:26:20;17.00;16.00
939;DHT22;456;53.584;9.968;2023-01-19T07:28:48;17.00;16.00
939;DHT22;456;53.584;9.968;2023-01-19T07:31:14;17.00;16.00
939;DHT22;456;53.584;9.968;2023-01-19T07:33:40;17.00;16.60
939;DHT22;456;53.584;9.968;2023-01-19T07:36:06;17.00;16.00
939;DHT22;456;53.584;9.968;2023-01-19T07:38:32;17.00;16.00
939;DHT22;456;53.584;9.968;2023-01-19T07:41:03;17.00;16.10
939;DHT22;456;53.584;9.968;2023-01-19T07:43:29;17.00;16.00
939;DHT22;456;53.584;9.968;2023-01-19T07:45:56;17.00;16.00
939;DHT22;456;53.584;9.968;2023-01-19T07:48:22;17.00;16.00
939;DHT22;456;53.584;9.968;2023-01-19T07:50:47;17.00;16.00
939;DHT22;456;53.584;9.968;2023-01-19T07:53:13;17.00;16.00
939;DHT22;456;53.584;9.968;2023-01-19T07:55:39;17.10;16.10
939;DHT22;456;53.584;9.968;2023-01-19T07:58:04;17.10;16.10
939;DHT22;456;53.584;9.968;2023-01-19T08:00:32;17.00;16.00
939;DHT22;456;53.584;9.968;2023-01-19T08:02:59;17.10;16.10
939;DHT22;456;53.584;9.968;2023-01-19T08:05:25;17.10;16.10
939;DHT22;456;53.584;9.968;2023-01-19T08:07:53;17.10;16.10
939;DHT22;456;53.584;9.968;2023-01-19T08:10:22;17.10;16.10
939;DHT22;456;53.584;9.968;2023-01-19T08:12:54;17.10;16.10
939;DHT22;456;53.584;9.968;2023-01-19T08:15:20;17.10;16.10
939;DHT22;456;53.584;9.968;2023-01-19T08:18:00;17.10;16.10
939;DHT22;456;53.584;9.968;2023-01-19T08:20:26;17.10;16.10
939;DHT22;456;53.584;9.968;2023-01-19T08:22:52;17.10;16.10
939;DHT22;456;53.584;9.968;2023-01-19T08:25:37;17.10;16.10
939;DHT22;456;53.584;9.968;2023-01-19T08:28:04;17.10;16.10
939;DHT22;456;53.584;9.968;2023-01-19T08:30:30;17.10;16.10
939;DHT22;456;53.584;9.968;2023-01-19T08:32:56;17.10;16.10
939;DHT22;456;53.584;9.968;2023-01-19T08:35:32;17.10;16.10
939;DHT22;456;53.584;9.968;2023-01-19T08:37:58;17.10;16.10
939;DHT22;456;53.584;9.968;2023-01-19T08:40:26;17.10;16.10
939;DHT22;456;53.584;9.968;2023-01-19T08:42:52;17.10;16.10
939;DHT22;456;53.584;9.968;2023-01-19T08:45:23;17.10;16.10
939;DHT22;456;53.584;9.968;2023-01-19T08:47:49;17.10;16.10
939;DHT22;456;53.584;9.968;2023-01-19T08:50:15;17.10;16.10
939;DHT22;456;53.584;9.968;2023-01-19T08:52:40;17.10;16.10
939;DHT22;456;53.584;9.968;2023-01-19T08:55:07;17.10;16.10
939;DHT22;456;53.584;9.968;2023-01-19T08:57:33;17.10;16.10
939;DHT22;456;53.584;9.968;2023-01-19T08:59:58;17.10;16.10
939;DHT22;456;53.584;9.968;2023-01-19T09:02:24;17.10;16.10
939;DHT22;456;53.584;9.968;2023-01-19T09:04:49;17.10;16.10
939;DHT22;456;53.584;9.968;2023-01-19T09:07:17;17.10;16.10
939;DHT22;456;53.584;9.968;2023-01-19T09:09:44;17.10;16.10
939;DHT22;456;53.584;9.968;2023-01-19T09:12:09;17.10;16.10
939;DHT22;456;53.584;9.968;2023-01-19T09:14:35;17.10;16.10
939;DHT22;456;53.584;9.968;2023-01-19T09:17:00;17.10;16.10
939;DHT22;456;53.584;9.968;2023-01-19T09:19:26;17.10;16.10
939;DHT22;456;53.584;9.968;2023-01-19T09:21:53;17.10;16.20
939;DHT22;456;53.584;9.968;2023-01-19T09:24:19;17.10;16.30
939;DHT22;456;53.584;9.968;2023-01-19T09:26:45;17.10;17.00
939;DHT22;456;53.584;9.968;2023-01-19T09:29:10;17.10;16.40
939;DHT22;456;53.584;9.968;2023-01-19T09:31:36;17.10;16.40
939;DHT22;456;53.584;9.968;2023-01-19T09:34:02;17.10;16.30
939;DHT22;456;53.584;9.968;2023-01-19T09:36:27;17.10;16.30
939;DHT22;456;53.584;9.968;2023-01-19T09:38:54;17.10;16.20
939;DHT22;456;53.584;9.968;2023-01-19T09:41:20;17.10;16.10
939;DHT22;456;53.584;9.968;2023-01-19T09:43:58;17.10;16.20
939;DHT22;456;53.584;9.968;2023-01-19T09:46:35;17.10;16.20
939;DHT22;456;53.584;9.968;2023-01-19T09:49:10;17.10;16.10
939;DHT22;456;53.584;9.968;2023-01-19T09:51:38;17.10;16.20
939;DHT22;456;53.584;9.968;2023-01-19T09:54:28;17.10;16.20
939;DHT22;456;53.584;9.968;2023-01-19T09:56:54;17.10;16.10
939;DHT22;456;53.584;9.968;2023-01-19T09:59:28;17.10;16.30
939;DHT22;456;53.584;9.968;2023-01-19T10:05:02;17.10;16.20
939;DHT22;456;53.584;9.968;2023-01-19T10:10:24;17.10;16.20
939;DHT22;456;53.584;9.968;2023-01-19T10:13:37;17.10;16.30
939;DHT22;456;53.584;9.968;2023-01-19T10:16:01;17.10;16.90
939;DHT22;456;53.584;9.968;2023-01-19T10:18:37;17.10;16.30
939;DHT22;456;53.584;9.968;2023-01-19T10:26:19;17.10;16.40
939;DHT22;456;53.584;9.968;2023-01-19T10:28:47;17.10;16.30
939;DHT22;456;53.584;9.968;2023-01-19T10:31:16;17.10;16.40
939;DHT22;456;53.584;9.968;2023-01-19T10:33:43;17.10;16.50
939;DHT22;456;53.584;9.968;2023-01-19T10:39:12;17.10;16.40
939;DHT22;456;53.584;9.968;2023-01-19T10:44:10;17.10;16.90
939;DHT22;456;53.584;9.968;2023-01-19T10:46:42;17.10;16.40
939;DHT22;456;53.584;9.968;2023-01-19T10:49:36;17.10;16.40
939;DHT22;456;53.584;9.968;2023-01-19T10:52:04;17.10;16.50
939;DHT22;456;53.584;9.968;2023-01-19T10:54:31;17.10;16.50
939;DHT22;456;53.584;9.968;2023-01-19T10:57:03;17.10;16.40
939;DHT22;456;53.584;9.968;2023-01-19T10:59:47;17.10;16.40
939;DHT22;456;53.584;9.968;2023-01-19T11:02:20;17.10;16.40
939;DHT22;456;53.584;9.968;2023-01-19T11:04:47;17.10;16.40
939;DHT22;456;53.584;9.968;2023-01-19T11:12:51;17.10;16.50
939;DHT22;456;53.584;9.968;2023-01-19T11:17:49;17.10;16.40
939;DHT22;456;53.584;9.968;2023-01-19T11:20:24;17.10;16.50
939;DHT22;456;53.584;9.968;2023-01-19T11:25:39;17.10;16.40
939;DHT22;456;53.584;9.968;2023-01-19T11:28:05;17.10;16.40
939;DHT22;456;53.584;9.968;2023-01-19T11:30:53;17.10;16.50
939;DHT22;456;53.584;9.968;2023-01-19T11:33:24;17.00;16.40
939;DHT22;456;53.584;9.968;2023-01-19T11:35:49;17.00;17.00
939;DHT22;456;53.584;9.968;2023-01-19T11:38:25;17.00;16.40
939;DHT22;456;53.584;9.968;2023-01-19T11:40:54;17.00;16.50
939;DHT22;456;53.584;9.968;2023-01-19T11:43:22;17.00;16.50
939;DHT22;456;53.584;9.968;2023-01-19T11:45:49;17.00;16.40
939;DHT22;456;53.584;9.968;2023-01-19T11:48:26;17.00;16.40
939;DHT22;456;53.584;9.968;2023-01-19T11:50:53;17.00;16.40
939;DHT22;456;53.584;9.968;2023-01-19T11:53:24;17.00;16.40
939;DHT22;456;53.584;9.968;2023-01-19T11:58:25;17.00;16.40
939;DHT22;456;53.584;9.968;2023-01-19T12:03:45;17.00;16.40
939;DHT22;456;53.584;9.968;2023-01-19T12:06:16;17.00;16.40
939;DHT22;456;53.584;9.968;2023-01-19T12:08:51;17.00;16.40
939;DHT22;456;53.584;9.968;2023-01-19T12:11:25;17.00;16.40
939;DHT22;456;53.584;9.968;2023-01-19T12:13:52;17.00;16.40
939;DHT22;456;53.584;9.968;2023-01-19T12:16:23;17.00;16.50
939;DHT22;456;53.584;9.968;2023-01-19T12:18:58;17.00;16.40
939;DHT22;456;53.584;9.968;2023-01-19T12:21:24;17.00;16.40
939;DHT22;456;53.584;9.968;2023-01-19T12:24:02;16.90;16.30
939;DHT22;456;53.584;9.968;2023-01-19T12:29:17;16.90;16.20
939;DHT22;456;53.584;9.968;2023-01-19T12:31:44;16.90;16.30
939;DHT22;456;53.584;9.968;2023-01-19T12:36:51;16.90;16.30
939;DHT22;456;53.584;9.968;2023-01-19T12:39:19;16.90;16.30
939;DHT22;456;53.584;9.968;2023-01-19T12:41:44;16.90;16.40
939;DHT22;456;53.584;9.968;2023-01-19T12:57:23;16.90;16.40
939;DHT22;456;53.584;9.968;2023-01-19T12:59:59;16.90;16.40
939;DHT22;456;53.584;9.968;2023-01-19T13:02:42;16.90;16.40
939;DHT22;456;53.584;9.968;2023-01-19T13:08:16;16.90;16.50
939;DHT22;456;53.584;9.968;2023-01-19T13:13:39;16.90;16.40
939;DHT22;456;53.584;9.968;2023-01-19T13:21:55;16.80;16.40
939;DHT22;456;53.584;9.968;2023-01-19T13:24:21;16.80;16.40
939;DHT22;456;53.584;9.968;2023-01-19T13:31:46;16.80;16.50
939;DHT22;456;53.584;9.968;2023-01-19T13:34:25;16.80;16.50
939;DHT22;456;53.584;9.968;2023-01-19T13:36:53;16.80;16.50
939;DHT22;456;53.584;9.968;2023-01-19T13:42:01;16.80;16.60
939;DHT22;456;53.584;9.968;2023-01-19T13:44:39;16.80;16.60
939;DHT22;456;53.584;9.968;2023-01-19T13:47:15;16.90;16.70
939;DHT22;456;53.584;9.968;2023-01-19T13:49:44;16.90;16.80
939;DHT22;456;53.584;9.968;2023-01-19T13:52:15;16.90;16.90
939;DHT22;456;53.584;9.968;2023-01-19T13:54:54;17.00;17.00
939;DHT22;456;53.584;9.968;2023-01-19T13:57:21;17.00;17.00
939;DHT22;456;53.584;9.968;2023-01-19T14:05:34;17.20;17.10
939;DHT22;456;53.584;9.968;2023-01-19T14:10:45;17.20;17.10
939;DHT22;456;53.584;9.968;2023-01-19T14:15:47;17.20;17.10
939;DHT22;456;53.584;9.968;2023-01-19T14:21:01;17.30;17.10
939;DHT22;456;53.584;9.968;2023-01-19T14:23:35;17.30;17.20
939;DHT22;456;53.584;9.968;2023-01-19T14:26:01;17.30;17.20
939;DHT22;456;53.584;9.968;2023-01-19T14:28:34;17.30;17.20
939;DHT22;456;53.584;9.968;2023-01-19T14:31:18;17.30;17.20
939;DHT22;456;53.584;9.968;2023-01-19T14:33:45;17.30;17.20
939;DHT22;456;53.584;9.968;2023-01-19T14:38:58;17.30;17.20
939;DHT22;456;53.584;9.968;2023-01-19T14:44:00;17.20;17.10
939;DHT22;456;53.584;9.968;2023-01-19T14:46:27;17.30;17.20
939;DHT22;456;53.584;9.968;2023-01-19T14:48:57;17.30;17.20
939;DHT22;456;53.584;9.968;2023-01-19T14:51:25;17.20;17.10
939;DHT22;456;53.584;9.968;2023-01-19T14:53:53;17.20;17.10
939;DHT22;456;53.584;9.968;2023-01-19T14:56:29;17.20;17.20
939;DHT22;456;53.584;9.968;2023-01-19T14:58:56;17.20;17.20
939;DHT22;456;53.584;9.968;2023-01-19T15:01:23;17.20;17.20
939;DHT22;456;53.584;9.968;2023-01-19T15:03:50;17.20;17.20
939;DHT22;456;53.584;9.968;2023-01-19T15:06:18;17.20;17.20
939;DHT22;456;53.584;9.968;2023-01-19T15:08:45;17.20;17.20
939;DHT22;456;53.584;9.968;2023-01-19T15:11:26;17.20;17.30
939;DHT22;456;53.584;9.968;2023-01-19T15:13:54;17.20;17.30
939;DHT22;456;53.584;9.968;2023-01-19T15:16:21;17.20;17.30
939;DHT22;456;53.584;9.968;2023-01-19T15:18:47;17.20;17.30
939;DHT22;456;53.584;9.968;2023-01-19T15:21:17;17.20;17.30
939;DHT22;456;53.584;9.968;2023-01-19T15:23:44;17.20;17.30
939;DHT22;456;53.584;9.968;2023-01-19T15:26:15;17.20;17.30
939;DHT22;456;53.584;9.968;2023-01-19T15:28:42;17.20;17.30
939;DHT22;456;53.584;9.968;2023-01-19T15:31:12;17.20;17.30
939;DHT22;456;53.584;9.968;2023-01-19T15:33:39;17.20;17.30
939;DHT22;456;53.584;9.968;2023-01-19T15:36:08;17.20;17.20
939;DHT22;456;53.584;9.968;2023-01-19T15:38:34;17.20;17.30
939;DHT22;456;53.584;9.968;2023-01-19T15:41:00;17.20;17.30
939;DHT22;456;53.584;9.968;2023-01-19T15:43:25;17.20;17.30
939;DHT22;456;53.584;9.968;2023-01-19T15:46:00;17.20;17.30
939;DHT22;456;53.584;9.968;2023-01-19T15:48:26;17.30;17.50
939;DHT22;456;53.584;9.968;2023-01-19T15:50:51;17.30;17.50
939;DHT22;456;53.584;9.968;2023-01-19T15:53:19;17.30;17.40
939;DHT22;456;53.584;9.968;2023-01-19T15:55:51;17.30;17.40
939;DHT22;456;53.584;9.968;2023-01-19T15:58:17;17.30;17.50
939;DHT22;456;53.584;9.968;2023-01-19T16:00:45;17.30;17.50
939;DHT22;456;53.584;9.968;2023-01-19T16:03:16;17.30;17.50
939;DHT22;456;53.584;9.968;2023-01-19T16:05:42;17.30;17.50
939;DHT22;456;53.584;9.968;2023-01-19T16:08:08;17.30;17.50
939;DHT22;456;53.584;9.968;2023-01-19T16:10:34;17.30;17.60
939;DHT22;456;53.584;9.968;2023-01-19T16:12:59;17.30;17.60
939;DHT22;456;53.584;9.968;2023-01-19T16:15:25;17.30;17.70
939;DHT22;456;53.584;9.968;2023-01-19T16:17:51;17.30;17.70
939;DHT22;456;53.584;9.968;2023-01-19T16:20:17;17.30;17.80
939;DHT22;456;53.584;9.968;2023-01-19T16:22:42;17.30;18.10
939;DHT22;456;53.584;9.968;2023-01-19T16:25:23;17.30;18.30
939;DHT22;456;53.584;9.968;2023-01-19T16:27:49;17.40;18.80
939;DHT22;456;53.584;9.968;2023-01-19T16:30:16;17.40;19.60
939;DHT22;456;53.584;9.968;2023-01-19T16:32:44;17.40;19.10
939;DHT22;456;53.584;9.968;2023-01-19T16:35:10;17.40;21.60
939;DHT22;456;53.584;9.968;2023-01-19T16:37:37;17.30;20.90
939;DHT22;456;53.584;9.968;2023-01-19T16:40:04;17.30;20.00
939;DHT22;456;53.584;9.968;2023-01-19T16:42:30;17.30;20.10
939;DHT22;456;53.584;9.968;2023-01-19T16:44:55;17.40;20.10
939;DHT22;456;53.584;9.968;2023-01-19T16:47:21;17.40;20.10
939;DHT22;456;53.584;9.968;2023-01-19T16:49:46;17.40;20.10
939;DHT22;456;53.584;9.968;2023-01-19T16:52:12;17.50;20.20
939;DHT22;456;53.584;9.968;2023-01-19T16:54:40;17.50;20.20
939;DHT22;456;53.584;9.968;2023-01-19T16:57:06;17.50;20.20
939;DHT22;456;53.584;9.968;2023-01-19T16:59:32;17.50;20.60
939;DHT22;456;53.584;9.968;2023-01-19T17:01:58;17.60;21.30
939;DHT22;456;53.584;9.968;2023-01-19T17:04:23;17.60;21.10
939;DHT22;456;53.584;9.968;2023-01-19T17:06:49;17.70;22.30
939;DHT22;456;53.584;9.968;2023-01-19T17:09:15;17.70;21.70
939;DHT22;456;53.584;9.968;2023-01-19T17:11:41;17.70;22.20
939;DHT22;456;53.584;9.968;2023-01-19T17:14:12;17.80;21.80
939;DHT22;456;53.584;9.968;2023-01-19T17:16:38;17.80;21.80
939;DHT22;456;53.584;9.968;2023-01-19T17:19:05;17.80;21.70
939;DHT22;456;53.584;9.968;2023-01-19T17:21:31;17.80;21.70
939;DHT22;456;53.584;9.968;2023-01-19T17:23:57;17.80;21.70
939;DHT22;456;53.584;9.968;2023-01-19T17:26:24;17.80;21.60
939;DHT22;456;53.584;9.968;2023-01-19T17:28:57;17.80;21.50
939;DHT22;456;53.584;9.968;2023-01-19T17:31:22;17.80;21.70
939;DHT22;456;53.584;9.968;2023-01-19T17:33:49;17.80;21.40
939;DHT22;456;53.584;9.968;2023-01-19T17:36:20;17.80;21.60
939;DHT22;456;53.584;9.968;2023-01-19T17:38:57;17.80;21.60
939;DHT22;456;53.584;9.968;2023-01-19T17:41:29;17.70;21.70
939;DHT22;456;53.584;9.968;2023-01-19T17:43:55;17.70;21.50
939;DHT22;456;53.584;9.968;2023-01-19T17:46:23;17.70;21.50
939;DHT22;456;53.584;9.968;2023-01-19T17:48:58;17.70;21.60
939;DHT22;456;53.584;9.968;2023-01-19T17:51:27;17.70;21.70
939;DHT22;456;53.584;9.968;2023-01-19T17:53:53;17.60;21.40
939;DHT22;456;53.584;9.968;2023-01-19T17:56:21;17.60;21.40
939;DHT22;456;53.584;9.968;2023-01-19T17:58:48;17.60;21.50
939;DHT22;456;53.584;9.968;2023-01-19T18:03:41;17.60;21.60
939;DHT22;456;53.584;9.968;2023-01-19T18:06:07;17.50;21.40
939;DHT22;456;53.584;9.968;2023-01-19T18:08:33;17.50;21.30
939;DHT22;456;53.584;9.968;2023-01-19T18:11:01;17.50;21.30
939;DHT22;456;53.584;9.968;2023-01-19T18:13:27;17.50;21.30
939;DHT22;456;53.584;9.968;2023-01-19T18:16:04;17.50;21.20
939;DHT22;456;53.584;9.968;2023-01-19T18:18:30;17.50;21.20
939;DHT22;456;53.584;9.968;2023-01-19T18:21:12;17.50;21.20
939;DHT22;456;53.584;9.968;2023-01-19T18:23:37;17.50;21.20